sensor_id;sensor_type;location;lat;lon;timestamp;P1;durP1;ratioP1;P2;durP2;ratioP2
30896;SDS011;64229;52.246;21.054;2023-01-08T00:00:48;74.85;;;26.85;;
30896;SDS011;64229;52.246;21.054;2023-01-08T00:03:13;75.78;;;24.58;;
30896;SDS011;64229;52.246;21.054;2023-01-08T00:05:39;61.15;;;22.48;;
30896;SDS011;64229;52.246;21.054;2023-01-08T00:08:06;73.30;;;24.13;;
30896;SDS011;64229;52.246;21.054;2023-01-08T00:10:36;69.35;;;24.70;;
30896;SDS011;64229;52.246;21.054;2023-01-08T00:13:02;63.53;;;22.85;;
30896;SDS011;64229;52.246;21.054;2023-01-08T00:15:29;71.15;;;25.98;;
30896;SDS011;64229;52.246;21.054;2023-01-08T00:17:55;61.83;;;24.45;;
30896;SDS011;64229;52.246;21.054;2023-01-08T00:20:21;69.30;;;26.77;;
30896;SDS011;64229;52.246;21.054;2023-01-08T00:22:49;52.33;;;20.58;;
30896;SDS011;64229;52.246;21.054;2023-01-08T00:25:15;64.15;;;24.70;;
30896;SDS011;64229;52.246;21.054;2023-01-08T00:27:41;69.22;;;25.27;;
30896;SDS011;64229;52.246;21.054;2023-01-08T00:30:07;72.18;;;27.02;;
30896;SDS011;64229;52.246;21.054;2023-01-08T00:32:33;65.80;;;24.20;;
30896;SDS011;64229;52.246;21.054;2023-01-08T00:34:59;57.67;;;22.40;;
30896;SDS011;64229;52.246;21.054;2023-01-08T00:37:25;56.38;;;19.55;;
30896;SDS011;64229;52.246;21.054;2023-01-08T00:39:52;60.40;;;23.38;;
30896;SDS011;64229;52.246;21.054;2023-01-08T00:42:18;59.50;;;22.73;;
30896;SDS011;64229;52.246;21.054;2023-01-08T00:44:43;53.90;;;19.33;;
30896;SDS011;64229;52.246;21.054;2023-01-08T00:47:10;33.83;;;13.50;;
30896;SDS011;64229;52.246;21.054;2023-01-08T00:49:36;25.15;;;11.10;;
30896;SDS011;64229;52.246;21.054;2023-01-08T00:52:01;37.80;;;16.90;;
30896;SDS011;64229;52.246;21.054;2023-01-08T00:54:27;53.47;;;20.40;;
30896;SDS011;64229;52.246;21.054;2023-01-08T00:56:55;47.60;;;19.13;;
30896;SDS011;64229;52.246;21.054;2023-01-08T00:59:20;57.60;;;21.67;;
30896;SDS011;64229;52.246;21.054;2023-01-08T01:01:47;43.33;;;17.05;;
30896;SDS011;64229;52.246;21.054;2023-01-08T01:04:13;52.38;;;18.17;;
30896;SDS011;64229;52.246;21.054;2023-01-08T01:06:41;55.90;;;22.90;;
30896;SDS011;64229;52.246;21.054;2023-01-08T01:09:07;57.55;;;23.67;;
30896;SDS011;64229;52.246;21.054;2023-01-08T01:11:33;49.80;;;19.77;;
30896;SDS011;64229;52.246;21.054;2023-01-08T01:13:58;59.30;;;23.38;;
30896;SDS011;64229;52.246;21.054;2023-01-08T01:16:24;52.83;;;22.83;;
30896;SDS011;64229;52.246;21.054;2023-01-08T01:18:50;56.17;;;22.83;;
30896;SDS011;64229;52.246;21.054;2023-01-08T01:21:20;56.47;;;22.17;;
30896;SDS011;64229;52.246;21.054;2023-01-08T01:23:46;48.33;;;15.82;;
30896;SDS011;64229;52.246;21.054;2023-01-08T01:26:13;52.40;;;22.33;;
30896;SDS011;64229;52.246;21.054;2023-01-08T01:28:42;47.47;;;20.27;;
30896;SDS011;64229;52.246;21.054;2023-01-08T01:31:07;30.75;;;13.40;;
30896;SDS011;64229;52.246;21.054;2023-01-08T01:33:36;50.78;;;20.35;;
30896;SDS011;64229;52.246;21.054;2023-01-08T01:36:01;45.47;;;18.58;;
30896;SDS011;64229;52.246;21.054;2023-01-08T01:38:27;30.95;;;13.32;;
30896;SDS011;64229;52.246;21.054;2023-01-08T01:40:53;39.72;;;17.75;;
30896;SDS011;64229;52.246;21.054;2023-01-08T01:43:38;31.40;;;12.57;;
30896;SDS011;64229;52.246;21.054;2023-01-08T01:46:10;48.55;;;17.95;;
30896;SDS011;64229;52.246;21.054;2023-01-08T01:49:01;48.40;;;19.20;;
30896;SDS011;64229;52.246;21.054;2023-01-08T01:51:31;39.63;;;17.58;;
30896;SDS011;64229;52.246;21.054;2023-01-08T01:53:59;47.33;;;18.98;;
30896;SDS011;64229;52.246;21.054;2023-01-08T01:56:27;50.80;;;19.42;;
30896;SDS011;64229;52.246;21.054;2023-01-08T01:58:54;47.67;;;19.00;;
30896;SDS011;64229;52.246;21.054;2023-01-08T02:01:20;33.30;;;12.57;;
30896;SDS011;64229;52.246;21.054;2023-01-08T02:03:47;31.77;;;11.43;;
30896;SDS011;64229;52.246;21.054;2023-01-08T02:06:15;31.13;;;12.50;;
30896;SDS011;64229;52.246;21.054;2023-01-08T02:09:19;30.13;;;11.80;;
30896;SDS011;64229;52.246;21.054;2023-01-08T02:12:06;47.17;;;19.83;;
30896;SDS011;64229;52.246;21.054;2023-01-08T02:15:02;50.42;;;20.00;;
30896;SDS011;64229;52.246;21.054;2023-01-08T02:17:47;35.28;;;13.07;;
30896;SDS011;64229;52.246;21.054;2023-01-08T02:28:00;39.83;;;14.88;;
30896;SDS011;64229;52.246;21.054;2023-01-08T02:30:33;41.67;;;17.90;;
30896;SDS011;64229;52.246;21.054;2023-01-08T02:32:59;39.88;;;17.15;;
30896;SDS011;64229;52.246;21.054;2023-01-08T02:35:32;34.28;;;14.85;;
30896;SDS011;64229;52.246;21.054;2023-01-08T02:38:03;34.58;;;14.85;;
30896;SDS011;64229;52.246;21.054;2023-01-08T02:40:38;30.25;;;13.57;;
30896;SDS011;64229;52.246;21.054;2023-01-08T02:43:17;28.35;;;12.45;;
30896;SDS011;64229;52.246;21.054;2023-01-08T02:45:56;36.10;;;15.30;;
30896;SDS011;64229;52.246;21.054;2023-01-08T02:50:55;22.60;;;9.98;;
30896;SDS011;64229;52.246;21.054;2023-01-08T02:53:35;31.55;;;11.73;;
30896;SDS011;64229;52.246;21.054;2023-01-08T02:56:06;32.70;;;13.48;;
30896;SDS011;64229;52.246;21.054;2023-01-08T02:58:34;24.02;;;8.95;;
30896;SDS011;64229;52.246;21.054;2023-01-08T03:01:02;21.00;;;9.55;;
30896;SDS011;64229;52.246;21.054;2023-01-08T03:03:30;28.60;;;11.00;;
30896;SDS011;64229;52.246;21.054;2023-01-08T03:06:04;25.90;;;8.77;;
30896;SDS011;64229;52.246;21.054;2023-01-08T03:08:41;33.13;;;12.50;;
30896;SDS011;64229;52.246;21.054;2023-01-08T03:11:09;16.67;;;7.82;;
30896;SDS011;64229;52.246;21.054;2023-01-08T03:13:39;38.63;;;13.15;;
30896;SDS011;64229;52.246;21.054;2023-01-08T03:16:32;32.55;;;13.63;;
30896;SDS011;64229;52.246;21.054;2023-01-08T03:19:00;26.38;;;11.50;;
30896;SDS011;64229;52.246;21.054;2023-01-08T03:21:32;32.30;;;12.60;;
30896;SDS011;64229;52.246;21.054;2023-01-08T03:23:59;20.90;;;7.65;;
30896;SDS011;64229;52.246;21.054;2023-01-08T03:26:26;30.90;;;12.15;;
30896;SDS011;64229;52.246;21.054;2023-01-08T03:28:54;13.10;;;5.45;;
30896;SDS011;64229;52.246;21.054;2023-01-08T03:31:22;20.30;;;8.45;;
30896;SDS011;64229;52.246;21.054;2023-01-08T03:33:51;22.83;;;7.85;;
30896;SDS011;64229;52.246;21.054;2023-01-08T03:36:20;17.75;;;8.27;;
30896;SDS011;64229;52.246;21.054;2023-01-08T03:38:55;22.30;;;9.45;;
30896;SDS011;64229;52.246;21.054;2023-01-08T03:41:24;16.83;;;7.35;;
30896;SDS011;64229;52.246;21.054;2023-01-08T03:43:53;10.93;;;4.20;;
30896;SDS011;64229;52.246;21.054;2023-01-08T03:46:22;27.40;;;11.00;;
30896;SDS011;64229;52.246;21.054;2023-01-08T03:48:59;29.60;;;11.73;;
30896;SDS011;64229;52.246;21.054;2023-01-08T03:51:26;23.75;;;9.95;;
30896;SDS011;64229;52.246;21.054;2023-01-08T03:53:52;28.92;;;11.27;;
30896;SDS011;64229;52.246;21.054;2023-01-08T03:56:22;13.75;;;6.30;;
30896;SDS011;64229;52.246;21.054;2023-01-08T03:58:47;23.60;;;10.63;;
30896;SDS011;64229;52.246;21.054;2023-01-08T04:01:13;15.98;;;7.30;;
30896;SDS011;64229;52.246;21.054;2023-01-08T04:03:38;17.00;;;6.50;;
30896;SDS011;64229;52.246;21.054;2023-01-08T04:06:04;27.00;;;10.45;;
30896;SDS011;64229;52.246;21.054;2023-01-08T04:08:29;19.73;;;7.10;;
30896;SDS011;64229;52.246;21.054;2023-01-08T04:10:55;17.58;;;6.60;;
30896;SDS011;64229;52.246;21.054;2023-01-08T04:13:20;28.60;;;10.15;;
30896;SDS011;64229;52.246;21.054;2023-01-08T04:15:49;14.60;;;7.22;;
30896;SDS011;64229;52.246;21.054;2023-01-08T04:18:15;23.15;;;8.82;;
30896;SDS011;64229;52.246;21.054;2023-01-08T04:20:45;15.65;;;6.85;;
30896;SDS011;64229;52.246;21.054;2023-01-08T04:23:13;16.85;;;7.75;;
30896;SDS011;64229;52.246;21.054;2023-01-08T04:25:39;17.25;;;7.15;;
30896;SDS011;64229;52.246;21.054;2023-01-08T04:28:04;18.92;;;7.93;;
30896;SDS011;64229;52.246;21.054;2023-01-08T04:30:30;13.40;;;5.07;;
30896;SDS011;64229;52.246;21.054;2023-01-08T04:32:55;15.10;;;6.30;;
30896;SDS011;64229;52.246;21.054;2023-01-08T04:35:21;25.83;;;9.60;;
30896;SDS011;64229;52.246;21.054;2023-01-08T04:37:46;23.85;;;9.93;;
30896;SDS011;64229;52.246;21.054;2023-01-08T04:40:12;23.02;;;10.02;;
30896;SDS011;64229;52.246;21.054;2023-01-08T04:42:37;16.33;;;7.05;;
30896;SDS011;64229;52.246;21.054;2023-01-08T04:45:04;23.15;;;8.55;;
30896;SDS011;64229;52.246;21.054;2023-01-08T04:47:30;29.95;;;11.23;;
30896;SDS011;64229;52.246;21.054;2023-01-08T04:49:55;28.83;;;11.90;;
30896;SDS011;64229;52.246;21.054;2023-01-08T04:52:21;25.15;;;10.63;;
30896;SDS011;64229;52.246;21.054;2023-01-08T04:54:46;13.30;;;5.93;;
30896;SDS011;64229;52.246;21.054;2023-01-08T04:57:12;23.52;;;10.77;;
30896;SDS011;64229;52.246;21.054;2023-01-08T04:59:37;19.35;;;8.50;;
30896;SDS011;64229;52.246;21.054;2023-01-08T05:02:03;10.75;;;5.47;;
30896;SDS011;64229;52.246;21.054;2023-01-08T05:04:28;10.95;;;5.03;;
30896;SDS011;64229;52.246;21.054;2023-01-08T05:06:54;26.67;;;10.75;;
30896;SDS011;64229;52.246;21.054;2023-01-08T05:09:19;16.30;;;6.78;;
30896;SDS011;64229;52.246;21.054;2023-01-08T05:11:45;24.52;;;7.20;;
30896;SDS011;64229;52.246;21.054;2023-01-08T05:14:10;23.23;;;10.32;;
30896;SDS011;64229;52.246;21.054;2023-01-08T05:16:36;23.55;;;9.48;;
30896;SDS011;64229;52.246;21.054;2023-01-08T05:19:01;24.83;;;10.68;;
30896;SDS011;64229;52.246;21.054;2023-01-08T05:21:27;24.55;;;10.05;;
30896;SDS011;64229;52.246;21.054;2023-01-08T05:23:52;22.23;;;8.40;;
30896;SDS011;64229;52.246;21.054;2023-01-08T05:26:17;28.23;;;10.48;;
30896;SDS011;64229;52.246;21.054;2023-01-08T05:28:43;26.25;;;9.18;;
30896;SDS011;64229;52.246;21.054;2023-01-08T05:31:09;13.35;;;4.63;;
30896;SDS011;64229;52.246;21.054;2023-01-08T05:33:35;15.70;;;6.88;;
30896;SDS011;64229;52.246;21.054;2023-01-08T05:36:05;23.02;;;7.00;;
30896;SDS011;64229;52.246;21.054;2023-01-08T05:38:32;9.45;;;4.85;;
30896;SDS011;64229;52.246;21.054;2023-01-08T05:40:57;22.75;;;8.70;;
30896;SDS011;64229;52.246;21.054;2023-01-08T05:43:23;21.40;;;6.35;;
30896;SDS011;64229;52.246;21.054;2023-01-08T05:45:48;5.60;;;3.20;;
30896;SDS011;64229;52.246;21.054;2023-01-08T05:48:14;18.92;;;7.22;;
30896;SDS011;64229;52.246;21.054;2023-01-08T05:50:40;9.40;;;4.07;;
30896;SDS011;64229;52.246;21.054;2023-01-08T05:53:06;23.63;;;9.60;;
30896;SDS011;64229;52.246;21.054;2023-01-08T05:55:32;22.65;;;9.55;;
30896;SDS011;64229;52.246;21.054;2023-01-08T05:58:01;24.30;;;9.60;;
30896;SDS011;64229;52.246;21.054;2023-01-08T06:00:29;18.40;;;7.53;;
30896;SDS011;64229;52.246;21.054;2023-01-08T06:02:55;10.85;;;4.88;;
30896;SDS011;64229;52.246;21.054;2023-01-08T06:05:20;18.83;;;7.97;;
30896;SDS011;64229;52.246;21.054;2023-01-08T06:07:46;19.00;;;8.13;;
30896;SDS011;64229;52.246;21.054;2023-01-08T06:10:11;17.27;;;7.35;;
30896;SDS011;64229;52.246;21.054;2023-01-08T06:12:37;23.60;;;10.30;;
30896;SDS011;64229;52.246;21.054;2023-01-08T06:15:03;11.23;;;5.82;;
30896;SDS011;64229;52.246;21.054;2023-01-08T06:17:29;25.58;;;9.05;;
30896;SDS011;64229;52.246;21.054;2023-01-08T06:19:55;19.13;;;7.38;;
30896;SDS011;64229;52.246;21.054;2023-01-08T06:22:21;18.40;;;7.63;;
30896;SDS011;64229;52.246;21.054;2023-01-08T06:24:46;22.75;;;9.05;;
30896;SDS011;64229;52.246;21.054;2023-01-08T06:27:12;16.90;;;6.28;;
30896;SDS011;64229;52.246;21.054;2023-01-08T06:29:37;7.90;;;4.10;;
30896;SDS011;64229;52.246;21.054;2023-01-08T06:32:03;17.23;;;7.72;;
30896;SDS011;64229;52.246;21.054;2023-01-08T06:34:28;16.00;;;6.72;;
30896;SDS011;64229;52.246;21.054;2023-01-08T06:36:54;19.23;;;7.03;;
30896;SDS011;64229;52.246;21.054;2023-01-08T06:39:19;15.43;;;6.60;;
30896;SDS011;64229;52.246;21.054;2023-01-08T06:41:45;17.08;;;7.15;;
30896;SDS011;64229;52.246;21.054;2023-01-08T06:44:10;30.92;;;10.48;;
30896;SDS011;64229;52.246;21.054;2023-01-08T06:46:36;19.90;;;7.15;;
30896;SDS011;64229;52.246;21.054;2023-01-08T06:49:04;21.02;;;8.45;;
30896;SDS011;64229;52.246;21.054;2023-01-08T06:51:31;20.30;;;8.88;;
30896;SDS011;64229;52.246;21.054;2023-01-08T06:53:56;13.43;;;5.85;;
30896;SDS011;64229;52.246;21.054;2023-01-08T06:56:22;18.60;;;7.63;;
30896;SDS011;64229;52.246;21.054;2023-01-08T06:58:47;23.63;;;8.98;;
30896;SDS011;64229;52.246;21.054;2023-01-08T07:01:13;13.60;;;6.97;;
30896;SDS011;64229;52.246;21.054;2023-01-08T07:03:39;21.08;;;8.20;;
30896;SDS011;64229;52.246;21.054;2023-01-08T07:06:05;12.98;;;5.22;;
30896;SDS011;64229;52.246;21.054;2023-01-08T07:08:31;26.67;;;7.97;;
30896;SDS011;64229;52.246;21.054;2023-01-08T07:11:00;19.25;;;8.95;;
30896;SDS011;64229;52.246;21.054;2023-01-08T07:13:28;16.75;;;7.25;;
30896;SDS011;64229;52.246;21.054;2023-01-08T07:15:53;20.60;;;8.50;;
30896;SDS011;64229;52.246;21.054;2023-01-08T07:18:20;19.60;;;7.10;;
30896;SDS011;64229;52.246;21.054;2023-01-08T07:20:46;15.13;;;5.45;;
30896;SDS011;64229;52.246;21.054;2023-01-08T07:23:12;28.63;;;11.02;;
30896;SDS011;64229;52.246;21.054;2023-01-08T07:25:38;11.43;;;7.00;;
30896;SDS011;64229;52.246;21.054;2023-01-08T07:28:04;26.63;;;9.60;;
30896;SDS011;64229;52.246;21.054;2023-01-08T07:30:29;15.02;;;6.60;;
30896;SDS011;64229;52.246;21.054;2023-01-08T07:32:58;23.30;;;10.50;;
30896;SDS011;64229;52.246;21.054;2023-01-08T07:35:24;28.45;;;11.32;;
30896;SDS011;64229;52.246;21.054;2023-01-08T07:37:50;28.63;;;11.55;;
30896;SDS011;64229;52.246;21.054;2023-01-08T07:40:15;18.15;;;7.57;;
30896;SDS011;64229;52.246;21.054;2023-01-08T07:42:41;21.02;;;8.85;;
30896;SDS011;64229;52.246;21.054;2023-01-08T07:45:06;25.75;;;8.02;;
30896;SDS011;64229;52.246;21.054;2023-01-08T07:47:32;29.05;;;10.60;;
30896;SDS011;64229;52.246;21.054;2023-01-08T07:49:58;19.23;;;8.98;;
30896;SDS011;64229;52.246;21.054;2023-01-08T07:52:23;17.38;;;8.02;;
30896;SDS011;64229;52.246;21.054;2023-01-08T07:54:49;21.13;;;6.50;;
30896;SDS011;64229;52.246;21.054;2023-01-08T07:57:14;16.25;;;7.68;;
30896;SDS011;64229;52.246;21.054;2023-01-08T07:59:40;19.70;;;8.82;;
30896;SDS011;64229;52.246;21.054;2023-01-08T08:02:05;26.83;;;10.85;;
30896;SDS011;64229;52.246;21.054;2023-01-08T08:04:31;15.18;;;6.57;;
30896;SDS011;64229;52.246;21.054;2023-01-08T08:06:57;11.82;;;5.60;;
30896;SDS011;64229;52.246;21.054;2023-01-08T08:09:23;29.20;;;11.40;;
30896;SDS011;64229;52.246;21.054;2023-01-08T08:11:48;19.08;;;4.93;;
30896;SDS011;64229;52.246;21.054;2023-01-08T08:14:14;13.60;;;5.85;;
30896;SDS011;64229;52.246;21.054;2023-01-08T08:16:39;18.48;;;8.27;;
30896;SDS011;64229;52.246;21.054;2023-01-08T08:19:05;24.38;;;11.07;;
30896;SDS011;64229;52.246;21.054;2023-01-08T08:21:30;25.45;;;11.40;;
30896;SDS011;64229;52.246;21.054;2023-01-08T08:23:56;24.95;;;10.75;;
30896;SDS011;64229;52.246;21.054;2023-01-08T08:26:22;21.83;;;10.38;;
30896;SDS011;64229;52.246;21.054;2023-01-08T08:28:47;20.48;;;7.32;;
30896;SDS011;64229;52.246;21.054;2023-01-08T08:31:13;28.77;;;11.65;;
30896;SDS011;64229;52.246;21.054;2023-01-08T08:33:39;31.02;;;10.40;;
30896;SDS011;64229;52.246;21.054;2023-01-08T08:36:04;22.20;;;7.60;;
30896;SDS011;64229;52.246;21.054;2023-01-08T08:38:31;23.55;;;10.02;;
30896;SDS011;64229;52.246;21.054;2023-01-08T08:40:56;13.85;;;7.00;;
30896;SDS011;64229;52.246;21.054;2023-01-08T08:43:22;14.32;;;6.07;;
30896;SDS011;64229;52.246;21.054;2023-01-08T08:45:48;20.55;;;7.40;;
30896;SDS011;64229;52.246;21.054;2023-01-08T08:48:13;25.42;;;9.15;;
30896;SDS011;64229;52.246;21.054;2023-01-08T08:50:40;28.13;;;11.85;;
30896;SDS011;64229;52.246;21.054;2023-01-08T08:53:06;19.77;;;7.70;;
30896;SDS011;64229;52.246;21.054;2023-01-08T08:55:32;22.13;;;8.57;;
30896;SDS011;64229;52.246;21.054;2023-01-08T08:58:02;19.60;;;7.43;;
30896;SDS011;64229;52.246;21.054;2023-01-08T09:00:34;11.68;;;5.90;;
30896;SDS011;64229;52.246;21.054;2023-01-08T09:03:01;21.70;;;8.32;;
30896;SDS011;64229;52.246;21.054;2023-01-08T09:05:26;27.60;;;11.30;;
30896;SDS011;64229;52.246;21.054;2023-01-08T09:07:52;20.60;;;8.88;;
30896;SDS011;64229;52.246;21.054;2023-01-08T09:10:18;29.10;;;12.25;;
30896;SDS011;64229;52.246;21.054;2023-01-08T09:12:44;21.52;;;9.32;;
30896;SDS011;64229;52.246;21.054;2023-01-08T09:15:10;25.48;;;9.07;;
30896;SDS011;64229;52.246;21.054;2023-01-08T09:17:35;10.88;;;6.65;;
30896;SDS011;64229;52.246;21.054;2023-01-08T09:20:01;32.33;;;10.90;;
30896;SDS011;64229;52.246;21.054;2023-01-08T09:22:28;27.17;;;12.20;;
30896;SDS011;64229;52.246;21.054;2023-01-08T09:24:54;18.40;;;8.10;;
30896;SDS011;64229;52.246;21.054;2023-01-08T09:27:20;30.30;;;12.55;;
30896;SDS011;64229;52.246;21.054;2023-01-08T09:29:46;30.65;;;12.18;;
30896;SDS011;64229;52.246;21.054;2023-01-08T09:32:11;18.75;;;6.90;;
30896;SDS011;64229;52.246;21.054;2023-01-08T09:34:37;20.33;;;8.73;;
30896;SDS011;64229;52.246;21.054;2023-01-08T09:37:02;20.63;;;7.00;;
30896;SDS011;64229;52.246;21.054;2023-01-08T09:39:29;8.75;;;4.03;;
30896;SDS011;64229;52.246;21.054;2023-01-08T09:41:55;21.02;;;9.32;;
30896;SDS011;64229;52.246;21.054;2023-01-08T09:44:23;14.88;;;7.72;;
30896;SDS011;64229;52.246;21.054;2023-01-08T09:46:53;20.95;;;8.52;;
30896;SDS011;64229;52.246;21.054;2023-01-08T09:49:41;19.92;;;8.85;;
30896;SDS011;64229;52.246;21.054;2023-01-08T09:52:11;22.45;;;10.38;;
30896;SDS011;64229;52.246;21.054;2023-01-08T09:54:38;26.13;;;10.63;;
30896;SDS011;64229;52.246;21.054;2023-01-08T09:57:05;15.70;;;6.97;;
30896;SDS011;64229;52.246;21.054;2023-01-08T09:59:34;28.75;;;10.25;;
30896;SDS011;64229;52.246;21.054;2023-01-08T10:02:00;25.00;;;11.15;;
30896;SDS011;64229;52.246;21.054;2023-01-08T10:04:25;24.63;;;11.18;;
30896;SDS011;64229;52.246;21.054;2023-01-08T10:06:59;15.05;;;6.78;;
30896;SDS011;64229;52.246;21.054;2023-01-08T10:09:31;30.67;;;11.98;;
30896;SDS011;64229;52.246;21.054;2023-01-08T10:12:01;16.17;;;6.18;;
30896;SDS011;64229;52.246;21.054;2023-01-08T10:14:32;15.23;;;7.82;;
30896;SDS011;64229;52.246;21.054;2023-01-08T10:17:11;15.20;;;4.97;;
30896;SDS011;64229;52.246;21.054;2023-01-08T10:19:46;18.73;;;7.25;;
30896;SDS011;64229;52.246;21.054;2023-01-08T10:22:12;22.23;;;8.18;;
30896;SDS011;64229;52.246;21.054;2023-01-08T10:24:40;24.95;;;9.05;;
30896;SDS011;64229;52.246;21.054;2023-01-08T10:27:17;20.67;;;7.60;;
30896;SDS011;64229;52.246;21.054;2023-01-08T10:29:50;18.30;;;7.68;;
30896;SDS011;64229;52.246;21.054;2023-01-08T10:32:18;25.05;;;11.90;;
30896;SDS011;64229;52.246;21.054;2023-01-08T10:34:50;20.93;;;9.60;;
30896;SDS011;64229;52.246;21.054;2023-01-08T10:40:05;31.30;;;12.38;;
30896;SDS011;64229;52.246;21.054;2023-01-08T10:42:44;14.65;;;6.57;;
30896;SDS011;64229;52.246;21.054;2023-01-08T10:45:15;30.50;;;11.73;;
30896;SDS011;64229;52.246;21.054;2023-01-08T10:47:48;35.00;;;13.80;;
30896;SDS011;64229;52.246;21.054;2023-01-08T10:50:22;21.13;;;8.85;;
30896;SDS011;64229;52.246;21.054;2023-01-08T10:52:51;29.45;;;13.85;;
30896;SDS011;64229;52.246;21.054;2023-01-08T10:55:27;22.33;;;9.63;;
30896;SDS011;64229;52.246;21.054;2023-01-08T10:58:04;22.33;;;11.07;;
30896;SDS011;64229;52.246;21.054;2023-01-08T11:00:39;22.02;;;8.82;;
30896;SDS011;64229;52.246;21.054;2023-01-08T11:05:54;30.80;;;12.77;;
30896;SDS011;64229;52.246;21.054;2023-01-08T11:08:21;32.60;;;12.63;;
30896;SDS011;64229;52.246;21.054;2023-01-08T11:10:53;25.40;;;10.93;;
30896;SDS011;64229;52.246;21.054;2023-01-08T11:13:23;40.17;;;14.52;;
30896;SDS011;64229;52.246;21.054;2023-01-08T11:16:06;33.85;;;12.95;;
30896;SDS011;64229;52.246;21.054;2023-01-08T11:18:44;34.95;;;14.32;;
30896;SDS011;64229;52.246;21.054;2023-01-08T11:21:19;31.55;;;13.63;;
30896;SDS011;64229;52.246;21.054;2023-01-08T11:24:33;34.92;;;14.52;;
30896;SDS011;64229;52.246;21.054;2023-01-08T11:26:47;33.83;;;15.77;;
30896;SDS011;64229;52.246;21.054;2023-01-08T11:29:16;19.85;;;8.10;;
30896;SDS011;64229;52.246;21.054;2023-01-08T11:31:54;28.13;;;12.32;;
30896;SDS011;64229;52.246;21.054;2023-01-08T11:37:26;26.65;;;11.73;;
30896;SDS011;64229;52.246;21.054;2023-01-08T11:39:54;24.58;;;8.45;;
30896;SDS011;64229;52.246;21.054;2023-01-08T11:50:34;24.08;;;9.50;;
30896;SDS011;64229;52.246;21.054;2023-01-08T12:01:14;14.70;;;5.97;;
30896;SDS011;64229;52.246;21.054;2023-01-08T12:03:54;19.67;;;10.60;;
30896;SDS011;64229;52.246;21.054;2023-01-08T12:11:56;28.90;;;11.30;;
30896;SDS011;64229;52.246;21.054;2023-01-08T12:22:37;22.75;;;9.30;;
30896;SDS011;64229;52.246;21.054;2023-01-08T12:30:47;15.25;;;6.53;;
30896;SDS011;64229;52.246;21.054;2023-01-08T12:36:12;18.80;;;8.52;;
30896;SDS011;64229;52.246;21.054;2023-01-08T12:38:43;14.15;;;6.60;;
30896;SDS011;64229;52.246;21.054;2023-01-08T12:41:17;18.35;;;9.13;;
30896;SDS011;64229;52.246;21.054;2023-01-08T12:46:31;28.90;;;12.90;;
30896;SDS011;64229;52.246;21.054;2023-01-08T12:48:59;18.17;;;9.48;;
30896;SDS011;64229;52.246;21.054;2023-01-08T12:54:19;27.90;;;10.07;;
30896;SDS011;64229;52.246;21.054;2023-01-08T12:57:04;19.25;;;9.05;;
30896;SDS011;64229;52.246;21.054;2023-01-08T12:59:59;33.75;;;14.75;;
30896;SDS011;64229;52.246;21.054;2023-01-08T13:02:36;22.25;;;8.07;;
30896;SDS011;64229;52.246;21.054;2023-01-08T13:07:44;22.70;;;9.88;;
30896;SDS011;64229;52.246;21.054;2023-01-08T13:10:48;34.90;;;14.98;;
30896;SDS011;64229;52.246;21.054;2023-01-08T13:21:17;37.50;;;14.93;;
30896;SDS011;64229;52.246;21.054;2023-01-08T13:24:38;26.40;;;11.32;;
30896;SDS011;64229;52.246;21.054;2023-01-08T13:26:51;35.63;;;14.88;;
30896;SDS011;64229;52.246;21.054;2023-01-08T13:29:50;23.80;;;11.60;;
30896;SDS011;64229;52.246;21.054;2023-01-08T13:32:23;32.88;;;13.35;;
30896;SDS011;64229;52.246;21.054;2023-01-08T13:35:23;27.75;;;11.27;;
30896;SDS011;64229;52.246;21.054;2023-01-08T13:37:52;33.72;;;13.77;;
30896;SDS011;64229;52.246;21.054;2023-01-08T13:40:35;35.17;;;13.18;;
30896;SDS011;64229;52.246;21.054;2023-01-08T13:46:02;30.50;;;11.32;;
30896;SDS011;64229;52.246;21.054;2023-01-08T13:56:40;20.58;;;9.10;;
30896;SDS011;64229;52.246;21.054;2023-01-08T14:01:55;31.90;;;12.88;;
30896;SDS011;64229;52.246;21.054;2023-01-08T14:04:22;36.08;;;14.43;;
30896;SDS011;64229;52.246;21.054;2023-01-08T14:06:48;26.27;;;10.10;;
30896;SDS011;64229;52.246;21.054;2023-01-08T14:09:21;46.03;;;17.40;;
30896;SDS011;64229;52.246;21.054;2023-01-08T14:11:49;16.73;;;8.05;;
30896;SDS011;64229;52.246;21.054;2023-01-08T14:14:22;42.33;;;14.30;;
30896;SDS011;64229;52.246;21.054;2023-01-08T14:16:49;27.70;;;11.48;;
30896;SDS011;64229;52.246;21.054;2023-01-08T14:19:17;50.10;;;17.25;;
30896;SDS011;64229;52.246;21.054;2023-01-08T14:21:50;44.13;;;16.27;;
30896;SDS011;64229;52.246;21.054;2023-01-08T14:24:18;49.22;;;17.17;;
30896;SDS011;64229;52.246;21.054;2023-01-08T14:26:50;41.03;;;13.93;;
30896;SDS011;64229;52.246;21.054;2023-01-08T14:29:20;40.33;;;14.85;;
30896;SDS011;64229;52.246;21.054;2023-01-08T14:31:52;48.05;;;17.25;;
30896;SDS011;64229;52.246;21.054;2023-01-08T14:34:20;44.70;;;17.50;;
30896;SDS011;64229;52.246;21.054;2023-01-08T14:36:50;44.15;;;18.27;;
30896;SDS011;64229;52.246;21.054;2023-01-08T14:39:21;36.38;;;14.50;;
30896;SDS011;64229;52.246;21.054;2023-01-08T14:41:47;47.60;;;18.00;;
30896;SDS011;64229;52.246;21.054;2023-01-08T14:44:32;46.35;;;16.83;;
30896;SDS011;64229;52.246;21.054;2023-01-08T14:46:58;47.33;;;17.45;;
30896;SDS011;64229;52.246;21.054;2023-01-08T14:49:25;44.95;;;17.25;;
30896;SDS011;64229;52.246;21.054;2023-01-08T14:51:54;47.42;;;16.75;;
30896;SDS011;64229;52.246;21.054;2023-01-08T14:54:22;42.80;;;17.05;;
30896;SDS011;64229;52.246;21.054;2023-01-08T14:56:55;42.43;;;16.93;;
30896;SDS011;64229;52.246;21.054;2023-01-08T14:59:25;49.40;;;18.05;;
30896;SDS011;64229;52.246;21.054;2023-01-08T15:01:54;42.90;;;17.33;;
30896;SDS011;64229;52.246;21.054;2023-01-08T15:04:23;36.17;;;12.75;;
30896;SDS011;64229;52.246;21.054;2023-01-08T15:06:50;48.28;;;18.20;;
30896;SDS011;64229;52.246;21.054;2023-01-08T15:11:47;39.03;;;15.85;;
30896;SDS011;64229;52.246;21.054;2023-01-08T15:14:34;45.92;;;17.60;;
30896;SDS011;64229;52.246;21.054;2023-01-08T15:17:10;44.00;;;16.40;;
30896;SDS011;64229;52.246;21.054;2023-01-08T15:19:42;43.90;;;17.08;;
30896;SDS011;64229;52.246;21.054;2023-01-08T15:22:17;33.08;;;13.02;;
30896;SDS011;64229;52.246;21.054;2023-01-08T15:24:49;41.80;;;17.58;;
30896;SDS011;64229;52.246;21.054;2023-01-08T15:27:25;29.33;;;11.63;;
30896;SDS011;64229;52.246;21.054;2023-01-08T15:29:53;45.33;;;15.70;;
30896;SDS011;64229;52.246;21.054;2023-01-08T15:32:31;32.78;;;13.50;;
30896;SDS011;64229;52.246;21.054;2023-01-08T15:34:59;45.17;;;17.00;;
30896;SDS011;64229;52.246;21.054;2023-01-08T15:37:25;44.20;;;19.23;;
30896;SDS011;64229;52.246;21.054;2023-01-08T15:39:51;35.30;;;13.82;;
30896;SDS011;64229;52.246;21.054;2023-01-08T15:45:18;45.13;;;16.77;;
30896;SDS011;64229;52.246;21.054;2023-01-08T15:47:50;38.53;;;14.65;;
30896;SDS011;64229;52.246;21.054;2023-01-08T15:50:15;46.22;;;18.42;;
30896;SDS011;64229;52.246;21.054;2023-01-08T15:52:41;40.53;;;14.30;;
30896;SDS011;64229;52.246;21.054;2023-01-08T15:55:17;41.78;;;15.25;;
30896;SDS011;64229;52.246;21.054;2023-01-08T15:57:45;45.03;;;18.25;;